sensor_id;sensor_type;location;lat;lon;timestamp;P1;durP1;ratioP1;P2;durP2;ratioP2
11447;SDS011;43755;49.736;8.734;2023-11-19T00:01:51;1.40;;;1.40;;
11447;SDS011;43755;49.736;8.734;2023-11-19T00:03:52;1.60;;;1.50;;
11447;SDS011;43755;49.736;8.734;2023-11-19T00:05:54;1.80;;;1.70;;
11447;SDS011;43755;49.736;8.734;2023-11-19T00:07:55;3.20;;;1.40;;
11447;SDS011;43755;49.736;8.734;2023-11-19T00:09:58;1.50;;;1.50;;
11447;SDS011;43755;49.736;8.734;2023-11-19T00:11:59;1.40;;;1.40;;
11447;SDS011;43755;49.736;8.734;2023-11-19T00:14:01;1.70;;;1.60;;
11447;SDS011;43755;49.736;8.734;2023-11-19T00:16:02;1.30;;;1.20;;
11447;SDS011;43755;49.736;8.734;2023-11-19T00:18:05;1.10;;;1.10;;
11447;SDS011;43755;49.736;8.734;2023-11-19T00:20:06;1.33;;;1.33;;
11447;SDS011;43755;49.736;8.734;2023-11-19T00:22:08;1.00;;;1.00;;
11447;SDS011;43755;49.736;8.734;2023-11-19T00:24:10;0.80;;;0.80;;
11447;SDS011;43755;49.736;8.734;2023-11-19T00:26:13;0.88;;;0.88;;
11447;SDS011;43755;49.736;8.734;2023-11-19T00:28:16;1.00;;;1.00;;
11447;SDS011;43755;49.736;8.734;2023-11-19T00:30:17;1.02;;;1.02;;
11447;SDS011;43755;49.736;8.734;2023-11-19T00:32:19;1.15;;;1.05;;
11447;SDS011;43755;49.736;8.734;2023-11-19T00:34:19;1.10;;;1.10;;
11447;SDS011;43755;49.736;8.734;2023-11-19T00:36:22;1.00;;;1.00;;
11447;SDS011;43755;49.736;8.734;2023-11-19T00:38:24;0.82;;;0.82;;
11447;SDS011;43755;49.736;8.734;2023-11-19T00:40:25;0.90;;;0.90;;
11447;SDS011;43755;49.736;8.734;2023-11-19T00:42:28;1.08;;;1.08;;
11447;SDS011;43755;49.736;8.734;2023-11-19T00:44:28;0.82;;;0.82;;
11447;SDS011;43755;49.736;8.734;2023-11-19T00:46:30;1.15;;;1.08;;
11447;SDS011;43755;49.736;8.734;2023-11-19T00:48:32;1.05;;;1.05;;
11447;SDS011;43755;49.736;8.734;2023-11-19T00:50:34;1.27;;;1.27;;
11447;SDS011;43755;49.736;8.734;2023-11-19T00:52:35;1.05;;;1.05;;
11447;SDS011;43755;49.736;8.734;2023-11-19T00:54:36;1.00;;;1.00;;
11447;SDS011;43755;49.736;8.734;2023-11-19T00:56:37;1.30;;;1.30;;
11447;SDS011;43755;49.736;8.734;2023-11-19T00:58:41;1.65;;;1.20;;
11447;SDS011;43755;49.736;8.734;2023-11-19T01:00:42;1.35;;;1.27;;
11447;SDS011;43755;49.736;8.734;2023-11-19T01:02:45;1.05;;;1.05;;
11447;SDS011;43755;49.736;8.734;2023-11-19T01:04:49;1.20;;;1.20;;
11447;SDS011;43755;49.736;8.734;2023-11-19T01:06:50;1.00;;;1.00;;
11447;SDS011;43755;49.736;8.734;2023-11-19T01:08:52;1.00;;;1.00;;
11447;SDS011;43755;49.736;8.734;2023-11-19T01:10:53;0.90;;;0.90;;
11447;SDS011;43755;49.736;8.734;2023-11-19T01:12:54;1.10;;;1.10;;
11447;SDS011;43755;49.736;8.734;2023-11-19T01:14:57;1.23;;;1.23;;
11447;SDS011;43755;49.736;8.734;2023-11-19T01:16:58;0.90;;;0.90;;
11447;SDS011;43755;49.736;8.734;2023-11-19T01:18:59;1.10;;;1.10;;
11447;SDS011;43755;49.736;8.734;2023-11-19T01:21:04;0.85;;;0.85;;
11447;SDS011;43755;49.736;8.734;2023-11-19T01:23:06;1.00;;;1.00;;
11447;SDS011;43755;49.736;8.734;2023-11-19T01:25:06;1.50;;;1.40;;
11447;SDS011;43755;49.736;8.734;2023-11-19T01:27:08;1.30;;;1.30;;
11447;SDS011;43755;49.736;8.734;2023-11-19T01:29:09;1.55;;;1.45;;
11447;SDS011;43755;49.736;8.734;2023-11-19T01:31:12;1.30;;;1.30;;
11447;SDS011;43755;49.736;8.734;2023-11-19T01:33:16;1.25;;;1.15;;
11447;SDS011;43755;49.736;8.734;2023-11-19T01:35:17;1.00;;;1.00;;
11447;SDS011;43755;49.736;8.734;2023-11-19T01:37:18;2.30;;;0.97;;
11447;SDS011;43755;49.736;8.734;2023-11-19T01:39:19;0.82;;;0.82;;
11447;SDS011;43755;49.736;8.734;2023-11-19T01:41:21;0.80;;;0.80;;
11447;SDS011;43755;49.736;8.734;2023-11-19T01:43:34;1.00;;;1.00;;
11447;SDS011;43755;49.736;8.734;2023-11-19T01:45:37;2.05;;;1.45;;
11447;SDS011;43755;49.736;8.734;2023-11-19T01:47:41;1.15;;;1.15;;
11447;SDS011;43755;49.736;8.734;2023-11-19T01:49:43;1.08;;;1.08;;
11447;SDS011;43755;49.736;8.734;2023-11-19T01:51:44;0.98;;;0.98;;
11447;SDS011;43755;49.736;8.734;2023-11-19T01:53:47;1.13;;;1.10;;
11447;SDS011;43755;49.736;8.734;2023-11-19T01:55:49;0.90;;;0.90;;
11447;SDS011;43755;49.736;8.734;2023-11-19T01:57:52;0.50;;;0.50;;
11447;SDS011;43755;49.736;8.734;2023-11-19T01:59:54;0.60;;;0.60;;
11447;SDS011;43755;49.736;8.734;2023-11-19T02:01:55;0.50;;;0.50;;
11447;SDS011;43755;49.736;8.734;2023-11-19T02:03:59;0.30;;;0.30;;
11447;SDS011;43755;49.736;8.734;2023-11-19T02:06:00;0.60;;;0.60;;
11447;SDS011;43755;49.736;8.734;2023-11-19T02:08:02;0.55;;;0.55;;
11447;SDS011;43755;49.736;8.734;2023-11-19T02:10:04;0.40;;;0.40;;
11447;SDS011;43755;49.736;8.734;2023-11-19T02:12:06;1.00;;;0.35;;
11447;SDS011;43755;49.736;8.734;2023-11-19T02:14:08;0.50;;;0.50;;
11447;SDS011;43755;49.736;8.734;2023-11-19T02:16:09;0.40;;;0.40;;
11447;SDS011;43755;49.736;8.734;2023-11-19T02:18:18;0.30;;;0.30;;
11447;SDS011;43755;49.736;8.734;2023-11-19T02:20:21;0.40;;;0.40;;
11447;SDS011;43755;49.736;8.734;2023-11-19T02:22:24;0.80;;;0.32;;
11447;SDS011;43755;49.736;8.734;2023-11-19T02:24:26;0.30;;;0.30;;
11447;SDS011;43755;49.736;8.734;2023-11-19T02:26:32;0.63;;;0.30;;
11447;SDS011;43755;49.736;8.734;2023-11-19T02:28:40;0.55;;;0.30;;
11447;SDS011;43755;49.736;8.734;2023-11-19T02:30:43;0.40;;;0.40;;
11447;SDS011;43755;49.736;8.734;2023-11-19T02:32:44;0.22;;;0.20;;
11447;SDS011;43755;49.736;8.734;2023-11-19T02:34:44;0.20;;;0.20;;
11447;SDS011;43755;49.736;8.734;2023-11-19T02:36:46;0.75;;;0.30;;
11447;SDS011;43755;49.736;8.734;2023-11-19T02:38:47;0.50;;;0.50;;
11447;SDS011;43755;49.736;8.734;2023-11-19T02:40:49;0.30;;;0.30;;
11447;SDS011;43755;49.736;8.734;2023-11-19T02:42:50;0.30;;;0.30;;
11447;SDS011;43755;49.736;8.734;2023-11-19T02:44:53;0.25;;;0.25;;
11447;SDS011;43755;49.736;8.734;2023-11-19T02:46:54;1.08;;;0.47;;
11447;SDS011;43755;49.736;8.734;2023-11-19T02:48:56;0.30;;;0.30;;
11447;SDS011;43755;49.736;8.734;2023-11-19T02:50:56;0.50;;;0.50;;
11447;SDS011;43755;49.736;8.734;2023-11-19T02:52:58;0.50;;;0.50;;
11447;SDS011;43755;49.736;8.734;2023-11-19T02:54:59;0.77;;;0.43;;
11447;SDS011;43755;49.736;8.734;2023-11-19T02:57:00;0.40;;;0.40;;
11447;SDS011;43755;49.736;8.734;2023-11-19T02:59:03;0.50;;;0.50;;
11447;SDS011;43755;49.736;8.734;2023-11-19T03:01:20;0.40;;;0.40;;
11447;SDS011;43755;49.736;8.734;2023-11-19T03:03:29;0.40;;;0.40;;
11447;SDS011;43755;49.736;8.734;2023-11-19T03:05:30;0.52;;;0.52;;
11447;SDS011;43755;49.736;8.734;2023-11-19T03:07:32;0.40;;;0.40;;
11447;SDS011;43755;49.736;8.734;2023-11-19T03:09:33;0.82;;;0.40;;
11447;SDS011;43755;49.736;8.734;2023-11-19T03:11:35;0.50;;;0.50;;
11447;SDS011;43755;49.736;8.734;2023-11-19T03:13:36;0.40;;;0.40;;
11447;SDS011;43755;49.736;8.734;2023-11-19T03:15:37;0.60;;;0.60;;
11447;SDS011;43755;49.736;8.734;2023-11-19T03:17:40;1.00;;;0.60;;
11447;SDS011;43755;49.736;8.734;2023-11-19T03:19:42;2.25;;;0.80;;
11447;SDS011;43755;49.736;8.734;2023-11-19T03:21:44;0.60;;;0.60;;
11447;SDS011;43755;49.736;8.734;2023-11-19T03:23:45;0.60;;;0.60;;
11447;SDS011;43755;49.736;8.734;2023-11-19T03:25:47;0.60;;;0.60;;
11447;SDS011;43755;49.736;8.734;2023-11-19T03:27:47;0.53;;;0.53;;
11447;SDS011;43755;49.736;8.734;2023-11-19T03:29:48;0.80;;;0.80;;
11447;SDS011;43755;49.736;8.734;2023-11-19T03:31:50;1.17;;;0.75;;
11447;SDS011;43755;49.736;8.734;2023-11-19T03:33:52;0.90;;;0.90;;
11447;SDS011;43755;49.736;8.734;2023-11-19T03:35:54;0.80;;;0.80;;
11447;SDS011;43755;49.736;8.734;2023-11-19T03:37:56;1.30;;;1.30;;
11447;SDS011;43755;49.736;8.734;2023-11-19T03:39:57;3.00;;;1.35;;
11447;SDS011;43755;49.736;8.734;2023-11-19T03:41:59;1.30;;;1.20;;
11447;SDS011;43755;49.736;8.734;2023-11-19T03:44:01;1.10;;;1.10;;
11447;SDS011;43755;49.736;8.734;2023-11-19T03:46:02;1.05;;;1.05;;
11447;SDS011;43755;49.736;8.734;2023-11-19T03:48:05;0.90;;;0.90;;
11447;SDS011;43755;49.736;8.734;2023-11-19T03:50:08;1.00;;;1.00;;
11447;SDS011;43755;49.736;8.734;2023-11-19T03:52:09;2.03;;;0.80;;
11447;SDS011;43755;49.736;8.734;2023-11-19T03:54:10;0.97;;;0.97;;
11447;SDS011;43755;49.736;8.734;2023-11-19T03:56:11;0.82;;;0.82;;
11447;SDS011;43755;49.736;8.734;2023-11-19T03:58:13;1.17;;;0.88;;
11447;SDS011;43755;49.736;8.734;2023-11-19T04:00:15;0.98;;;0.98;;
11447;SDS011;43755;49.736;8.734;2023-11-19T04:02:16;0.90;;;0.90;;
11447;SDS011;43755;49.736;8.734;2023-11-19T04:04:18;0.80;;;0.80;;
11447;SDS011;43755;49.736;8.734;2023-11-19T04:06:20;2.60;;;0.90;;
11447;SDS011;43755;49.736;8.734;2023-11-19T04:08:22;0.70;;;0.70;;
11447;SDS011;43755;49.736;8.734;2023-11-19T04:10:23;0.82;;;0.80;;
11447;SDS011;43755;49.736;8.734;2023-11-19T04:12:25;1.00;;;1.00;;
11447;SDS011;43755;49.736;8.734;2023-11-19T04:14:26;0.95;;;0.93;;
11447;SDS011;43755;49.736;8.734;2023-11-19T04:16:28;0.93;;;0.80;;
11447;SDS011;43755;49.736;8.734;2023-11-19T04:18:30;0.80;;;0.80;;
11447;SDS011;43755;49.736;8.734;2023-11-19T04:20:32;1.10;;;1.10;;
11447;SDS011;43755;49.736;8.734;2023-11-19T04:22:34;1.52;;;1.42;;
11447;SDS011;43755;49.736;8.734;2023-11-19T04:24:36;1.50;;;1.50;;
11447;SDS011;43755;49.736;8.734;2023-11-19T04:26:36;1.10;;;1.10;;
11447;SDS011;43755;49.736;8.734;2023-11-19T04:28:41;1.75;;;1.20;;
11447;SDS011;43755;49.736;8.734;2023-11-19T04:30:43;1.38;;;1.35;;
11447;SDS011;43755;49.736;8.734;2023-11-19T04:32:44;1.45;;;1.40;;
11447;SDS011;43755;49.736;8.734;2023-11-19T04:34:45;1.30;;;1.30;;
11447;SDS011;43755;49.736;8.734;2023-11-19T04:36:47;1.50;;;1.50;;
11447;SDS011;43755;49.736;8.734;2023-11-19T04:38:50;1.75;;;1.65;;
11447;SDS011;43755;49.736;8.734;2023-11-19T04:40:51;1.67;;;1.67;;
11447;SDS011;43755;49.736;8.734;2023-11-19T04:42:53;1.88;;;1.88;;
11447;SDS011;43755;49.736;8.734;2023-11-19T04:44:54;1.65;;;1.65;;
11447;SDS011;43755;49.736;8.734;2023-11-19T04:46:56;2.20;;;2.10;;
11447;SDS011;43755;49.736;8.734;2023-11-19T04:48:58;2.13;;;2.03;;
11447;SDS011;43755;49.736;8.734;2023-11-19T04:50:59;2.67;;;2.47;;
11447;SDS011;43755;49.736;8.734;2023-11-19T04:53:00;2.50;;;2.40;;
11447;SDS011;43755;49.736;8.734;2023-11-19T04:55:04;2.33;;;2.22;;
11447;SDS011;43755;49.736;8.734;2023-11-19T04:57:06;2.38;;;2.15;;
11447;SDS011;43755;49.736;8.734;2023-11-19T04:59:09;2.80;;;2.70;;
11447;SDS011;43755;49.736;8.734;2023-11-19T05:01:13;2.80;;;2.60;;
11447;SDS011;43755;49.736;8.734;2023-11-19T05:03:15;3.35;;;2.90;;
11447;SDS011;43755;49.736;8.734;2023-11-19T05:05:18;3.30;;;2.90;;
11447;SDS011;43755;49.736;8.734;2023-11-19T05:07:19;2.70;;;2.60;;
11447;SDS011;43755;49.736;8.734;2023-11-19T05:09:20;3.28;;;2.97;;
11447;SDS011;43755;49.736;8.734;2023-11-19T05:11:23;3.20;;;3.00;;
11447;SDS011;43755;49.736;8.734;2023-11-19T05:13:25;3.33;;;3.13;;
11447;SDS011;43755;49.736;8.734;2023-11-19T05:15:26;3.55;;;3.28;;
11447;SDS011;43755;49.736;8.734;2023-11-19T05:17:27;3.63;;;3.40;;
11447;SDS011;43755;49.736;8.734;2023-11-19T05:19:28;3.70;;;3.50;;
11447;SDS011;43755;49.736;8.734;2023-11-19T05:21:29;3.88;;;3.67;;
11447;SDS011;43755;49.736;8.734;2023-11-19T05:23:31;4.40;;;4.10;;
11447;SDS011;43755;49.736;8.734;2023-11-19T05:25:33;4.60;;;4.20;;
11447;SDS011;43755;49.736;8.734;2023-11-19T05:27:35;4.68;;;4.30;;
11447;SDS011;43755;49.736;8.734;2023-11-19T05:29:37;4.40;;;4.10;;
11447;SDS011;43755;49.736;8.734;2023-11-19T05:31:39;4.00;;;3.80;;
11447;SDS011;43755;49.736;8.734;2023-11-19T05:33:40;3.88;;;3.65;;
11447;SDS011;43755;49.736;8.734;2023-11-19T05:35:42;3.50;;;3.28;;
11447;SDS011;43755;49.736;8.734;2023-11-19T05:37:43;3.42;;;3.22;;
11447;SDS011;43755;49.736;8.734;2023-11-19T05:39:45;2.85;;;2.65;;
11447;SDS011;43755;49.736;8.734;2023-11-19T05:41:46;2.80;;;2.70;;
11447;SDS011;43755;49.736;8.734;2023-11-19T05:43:49;3.28;;;2.80;;
11447;SDS011;43755;49.736;8.734;2023-11-19T05:45:50;3.00;;;2.80;;
11447;SDS011;43755;49.736;8.734;2023-11-19T05:47:51;3.72;;;2.95;;
11447;SDS011;43755;49.736;8.734;2023-11-19T05:49:53;3.33;;;3.03;;
11447;SDS011;43755;49.736;8.734;2023-11-19T05:51:54;3.45;;;3.15;;
11447;SDS011;43755;49.736;8.734;2023-11-19T05:53:57;3.30;;;3.10;;
11447;SDS011;43755;49.736;8.734;2023-11-19T05:55:57;3.87;;;3.67;;
11447;SDS011;43755;49.736;8.734;2023-11-19T05:58:03;6.10;;;4.00;;
11447;SDS011;43755;49.736;8.734;2023-11-19T06:00:08;4.18;;;3.60;;
11447;SDS011;43755;49.736;8.734;2023-11-19T06:02:12;3.53;;;3.33;;
11447;SDS011;43755;49.736;8.734;2023-11-19T06:04:14;4.13;;;3.80;;
11447;SDS011;43755;49.736;8.734;2023-11-19T06:06:16;3.50;;;3.30;;
11447;SDS011;43755;49.736;8.734;2023-11-19T06:08:17;3.92;;;3.63;;
11447;SDS011;43755;49.736;8.734;2023-11-19T06:10:20;4.75;;;3.65;;
11447;SDS011;43755;49.736;8.734;2023-11-19T06:12:22;4.47;;;3.78;;
11447;SDS011;43755;49.736;8.734;2023-11-19T06:14:23;4.07;;;3.67;;
11447;SDS011;43755;49.736;8.734;2023-11-19T06:16:26;4.43;;;3.75;;
11447;SDS011;43755;49.736;8.734;2023-11-19T06:18:26;3.97;;;3.45;;
11447;SDS011;43755;49.736;8.734;2023-11-19T06:20:28;3.78;;;3.47;;
11447;SDS011;43755;49.736;8.734;2023-11-19T06:22:29;3.47;;;3.17;;
11447;SDS011;43755;49.736;8.734;2023-11-19T06:24:31;3.75;;;3.53;;
11447;SDS011;43755;49.736;8.734;2023-11-19T06:26:32;3.60;;;3.30;;
11447;SDS011;43755;49.736;8.734;2023-11-19T06:28:33;3.43;;;3.13;;
11447;SDS011;43755;49.736;8.734;2023-11-19T06:30:34;3.47;;;3.25;;
11447;SDS011;43755;49.736;8.734;2023-11-19T06:32:37;3.53;;;3.00;;
11447;SDS011;43755;49.736;8.734;2023-11-19T06:34:39;3.80;;;3.50;;
11447;SDS011;43755;49.736;8.734;2023-11-19T06:36:39;3.50;;;3.30;;
11447;SDS011;43755;49.736;8.734;2023-11-19T06:38:40;3.47;;;3.28;;
11447;SDS011;43755;49.736;8.734;2023-11-19T06:40:42;3.33;;;3.10;;
11447;SDS011;43755;49.736;8.734;2023-11-19T06:42:43;3.70;;;3.40;;
11447;SDS011;43755;49.736;8.734;2023-11-19T06:44:45;3.47;;;3.03;;
11447;SDS011;43755;49.736;8.734;2023-11-19T06:46:46;2.92;;;2.72;;
11447;SDS011;43755;49.736;8.734;2023-11-19T06:48:50;3.00;;;2.90;;
11447;SDS011;43755;49.736;8.734;2023-11-19T06:50:52;4.70;;;3.05;;
11447;SDS011;43755;49.736;8.734;2023-11-19T06:52:53;4.30;;;3.90;;
11447;SDS011;43755;49.736;8.734;2023-11-19T06:54:55;3.72;;;3.42;;
11447;SDS011;43755;49.736;8.734;2023-11-19T06:56:56;6.70;;;4.20;;
11447;SDS011;43755;49.736;8.734;2023-11-19T06:58:58;4.15;;;3.88;;
11447;SDS011;43755;49.736;8.734;2023-11-19T07:00:59;4.68;;;4.20;;
11447;SDS011;43755;49.736;8.734;2023-11-19T07:03:00;4.57;;;4.17;;
11447;SDS011;43755;49.736;8.734;2023-11-19T07:05:03;4.88;;;4.40;;
11447;SDS011;43755;49.736;8.734;2023-11-19T07:07:05;4.50;;;4.13;;
11447;SDS011;43755;49.736;8.734;2023-11-19T07:09:06;6.07;;;4.53;;
11447;SDS011;43755;49.736;8.734;2023-11-19T07:11:10;4.35;;;4.05;;
11447;SDS011;43755;49.736;8.734;2023-11-19T07:13:11;4.13;;;3.83;;
11447;SDS011;43755;49.736;8.734;2023-11-19T07:15:12;4.60;;;4.00;;
11447;SDS011;43755;49.736;8.734;2023-11-19T07:17:14;5.30;;;4.03;;
11447;SDS011;43755;49.736;8.734;2023-11-19T07:19:15;4.55;;;3.67;;
11447;SDS011;43755;49.736;8.734;2023-11-19T07:21:18;4.82;;;4.20;;
11447;SDS011;43755;49.736;8.734;2023-11-19T07:23:19;5.80;;;4.60;;
11447;SDS011;43755;49.736;8.734;2023-11-19T07:25:21;4.95;;;4.15;;
11447;SDS011;43755;49.736;8.734;2023-11-19T07:27:23;5.18;;;4.38;;
11447;SDS011;43755;49.736;8.734;2023-11-19T07:29:25;4.43;;;4.03;;
11447;SDS011;43755;49.736;8.734;2023-11-19T07:31:26;3.85;;;3.55;;
11447;SDS011;43755;49.736;8.734;2023-11-19T07:33:28;4.20;;;3.80;;
11447;SDS011;43755;49.736;8.734;2023-11-19T07:35:29;4.13;;;3.25;;
11447;SDS011;43755;49.736;8.734;2023-11-19T07:37:32;4.63;;;3.60;;
11447;SDS011;43755;49.736;8.734;2023-11-19T07:39:33;3.33;;;2.90;;
11447;SDS011;43755;49.736;8.734;2023-11-19T07:41:35;3.10;;;2.65;;
11447;SDS011;43755;49.736;8.734;2023-11-19T07:43:36;2.85;;;2.65;;
11447;SDS011;43755;49.736;8.734;2023-11-19T07:45:38;3.25;;;2.55;;
11447;SDS011;43755;49.736;8.734;2023-11-19T07:47:39;3.10;;;2.80;;
11447;SDS011;43755;49.736;8.734;2023-11-19T07:49:40;3.00;;;2.80;;
11447;SDS011;43755;49.736;8.734;2023-11-19T07:51:43;2.83;;;2.40;;
11447;SDS011;43755;49.736;8.734;2023-11-19T07:53:46;3.65;;;2.20;;
11447;SDS011;43755;49.736;8.734;2023-11-19T07:55:47;4.35;;;2.50;;
11447;SDS011;43755;49.736;8.734;2023-11-19T07:57:48;4.20;;;2.40;;
11447;SDS011;43755;49.736;8.734;2023-11-19T07:59:49;2.70;;;2.40;;
11447;SDS011;43755;49.736;8.734;2023-11-19T08:01:51;2.75;;;2.33;;
11447;SDS011;43755;49.736;8.734;2023-11-19T08:03:52;4.15;;;2.15;;
11447;SDS011;43755;49.736;8.734;2023-11-19T08:05:54;2.63;;;2.30;;
11447;SDS011;43755;49.736;8.734;2023-11-19T08:07:56;2.28;;;2.08;;
11447;SDS011;43755;49.736;8.734;2023-11-19T08:09:59;3.15;;;2.20;;
11447;SDS011;43755;49.736;8.734;2023-11-19T08:12:01;2.47;;;2.28;;
11447;SDS011;43755;49.736;8.734;2023-11-19T08:14:02;2.38;;;2.20;;
11447;SDS011;43755;49.736;8.734;2023-11-19T08:16:04;2.95;;;2.20;;
11447;SDS011;43755;49.736;8.734;2023-11-19T08:18:06;2.72;;;2.28;;
11447;SDS011;43755;49.736;8.734;2023-11-19T08:20:09;4.72;;;2.30;;
11447;SDS011;43755;49.736;8.734;2023-11-19T08:22:11;3.78;;;2.00;;
11447;SDS011;43755;49.736;8.734;2023-11-19T08:24:12;4.32;;;2.10;;
11447;SDS011;43755;49.736;8.734;2023-11-19T08:26:15;2.20;;;2.00;;
11447;SDS011;43755;49.736;8.734;2023-11-19T08:28:17;2.53;;;2.10;;
11447;SDS011;43755;49.736;8.734;2023-11-19T08:30:18;5.57;;;2.08;;
11447;SDS011;43755;49.736;8.734;2023-11-19T08:32:19;2.83;;;2.13;;
11447;SDS011;43755;49.736;8.734;2023-11-19T08:34:20;3.15;;;2.45;;
11447;SDS011;43755;49.736;8.734;2023-11-19T08:36:22;4.22;;;2.40;;
11447;SDS011;43755;49.736;8.734;2023-11-19T08:38:23;4.47;;;2.20;;
11447;SDS011;43755;49.736;8.734;2023-11-19T08:40:24;2.42;;;2.10;;
11447;SDS011;43755;49.736;8.734;2023-11-19T08:42:27;4.32;;;2.13;;
11447;SDS011;43755;49.736;8.734;2023-11-19T08:44:29;2.53;;;1.77;;
11447;SDS011;43755;49.736;8.734;2023-11-19T08:46:30;3.20;;;1.70;;
11447;SDS011;43755;49.736;8.734;2023-11-19T08:48:31;3.67;;;1.83;;
11447;SDS011;43755;49.736;8.734;2023-11-19T08:50:32;3.88;;;2.08;;
11447;SDS011;43755;49.736;8.734;2023-11-19T08:52:34;2.03;;;1.70;;
11447;SDS011;43755;49.736;8.734;2023-11-19T08:54:35;8.53;;;2.07;;
11447;SDS011;43755;49.736;8.734;2023-11-19T08:56:36;2.13;;;1.60;;
11447;SDS011;43755;49.736;8.734;2023-11-19T08:58:40;1.52;;;1.42;;
11447;SDS011;43755;49.736;8.734;2023-11-19T09:00:42;3.67;;;1.63;;
11447;SDS011;43755;49.736;8.734;2023-11-19T09:02:42;1.70;;;1.37;;
11447;SDS011;43755;49.736;8.734;2023-11-19T09:04:43;3.20;;;1.75;;
11447;SDS011;43755;49.736;8.734;2023-11-19T09:06:45;1.45;;;1.35;;
11447;SDS011;43755;49.736;8.734;2023-11-19T09:08:46;2.38;;;1.70;;
11447;SDS011;43755;49.736;8.734;2023-11-19T09:10:48;1.42;;;1.33;;
11447;SDS011;43755;49.736;8.734;2023-11-19T09:12:49;3.22;;;2.00;;
11447;SDS011;43755;49.736;8.734;2023-11-19T09:14:51;3.27;;;1.70;;
11447;SDS011;43755;49.736;8.734;2023-11-19T09:16:52;2.35;;;1.70;;
11447;SDS011;43755;49.736;8.734;2023-11-19T09:18:54;1.73;;;1.63;;
11447;SDS011;43755;49.736;8.734;2023-11-19T09:20:55;1.75;;;1.42;;
11447;SDS011;43755;49.736;8.734;2023-11-19T09:22:57;2.90;;;1.90;;
11447;SDS011;43755;49.736;8.734;2023-11-19T09:24:58;1.92;;;1.73;;
11447;SDS011;43755;49.736;8.734;2023-11-19T09:27:00;3.33;;;1.77;;
11447;SDS011;43755;49.736;8.734;2023-11-19T09:29:01;4.82;;;1.80;;
11447;SDS011;43755;49.736;8.734;2023-11-19T09:31:12;1.90;;;1.80;;
11447;SDS011;43755;49.736;8.734;2023-11-19T09:33:14;2.13;;;1.77;;
11447;SDS011;43755;49.736;8.734;2023-11-19T09:35:15;2.92;;;2.38;;
11447;SDS011;43755;49.736;8.734;2023-11-19T09:37:17;2.47;;;2.20;;
11447;SDS011;43755;49.736;8.734;2023-11-19T09:39:18;2.95;;;1.88;;
11447;SDS011;43755;49.736;8.734;2023-11-19T09:41:19;2.33;;;2.00;;
11447;SDS011;43755;49.736;8.734;2023-11-19T09:43:20;4.38;;;2.17;;
11447;SDS011;43755;49.736;8.734;2023-11-19T09:45:21;2.15;;;1.63;;
11447;SDS011;43755;49.736;8.734;2023-11-19T09:47:29;4.18;;;2.00;;
11447;SDS011;43755;49.736;8.734;2023-11-19T09:49:30;3.33;;;1.98;;
11447;SDS011;43755;49.736;8.734;2023-11-19T09:51:32;3.05;;;1.88;;
11447;SDS011;43755;49.736;8.734;2023-11-19T09:53:33;2.35;;;1.67;;
11447;SDS011;43755;49.736;8.734;2023-11-19T09:55:36;4.03;;;1.70;;
11447;SDS011;43755;49.736;8.734;2023-11-19T09:57:37;2.15;;;1.80;;
11447;SDS011;43755;49.736;8.734;2023-11-19T09:59:39;3.03;;;1.85;;
11447;SDS011;43755;49.736;8.734;2023-11-19T10:01:42;3.38;;;1.85;;
11447;SDS011;43755;49.736;8.734;2023-11-19T10:03:46;2.55;;;1.70;;
11447;SDS011;43755;49.736;8.734;2023-11-19T10:05:48;2.50;;;1.67;;
11447;SDS011;43755;49.736;8.734;2023-11-19T10:07:49;2.60;;;1.63;;
11447;SDS011;43755;49.736;8.734;2023-11-19T10:09:51;3.05;;;1.73;;
11447;SDS011;43755;49.736;8.734;2023-11-19T10:11:52;4.43;;;1.75;;
11447;SDS011;43755;49.736;8.734;2023-11-19T10:13:54;3.30;;;1.75;;
11447;SDS011;43755;49.736;8.734;2023-11-19T10:15:55;2.40;;;1.95;;
11447;SDS011;43755;49.736;8.734;2023-11-19T10:17:58;3.60;;;1.90;;
11447;SDS011;43755;49.736;8.734;2023-11-19T10:20:01;2.65;;;1.65;;
11447;SDS011;43755;49.736;8.734;2023-11-19T10:22:03;4.05;;;1.92;;
11447;SDS011;43755;49.736;8.734;2023-11-19T10:24:05;2.63;;;1.77;;
11447;SDS011;43755;49.736;8.734;2023-11-19T10:26:07;3.15;;;1.80;;
11447;SDS011;43755;49.736;8.734;2023-11-19T10:28:08;2.20;;;1.37;;
11447;SDS011;43755;49.736;8.734;2023-11-19T10:30:09;2.92;;;1.48;;
11447;SDS011;43755;49.736;8.734;2023-11-19T10:32:12;2.45;;;1.30;;
11447;SDS011;43755;49.736;8.734;2023-11-19T10:34:23;2.00;;;1.30;;
11447;SDS011;43755;49.736;8.734;2023-11-19T10:36:38;2.85;;;1.40;;
11447;SDS011;43755;49.736;8.734;2023-11-19T10:38:41;2.35;;;1.38;;
11447;SDS011;43755;49.736;8.734;2023-11-19T10:40:53;6.63;;;1.83;;
11447;SDS011;43755;49.736;8.734;2023-11-19T10:43:01;2.45;;;1.13;;
11447;SDS011;43755;49.736;8.734;2023-11-19T10:45:02;2.85;;;1.45;;
11447;SDS011;43755;49.736;8.734;2023-11-19T10:47:05;5.45;;;1.50;;
11447;SDS011;43755;49.736;8.734;2023-11-19T10:49:07;5.93;;;1.50;;
11447;SDS011;43755;49.736;8.734;2023-11-19T10:51:09;3.42;;;1.85;;
11447;SDS011;43755;49.736;8.734;2023-11-19T10:53:12;4.38;;;2.25;;
11447;SDS011;43755;49.736;8.734;2023-11-19T10:55:13;4.47;;;2.13;;
11447;SDS011;43755;49.736;8.734;2023-11-19T10:57:20;3.95;;;1.80;;
11447;SDS011;43755;49.736;8.734;2023-11-19T10:59:23;5.82;;;2.33;;
11447;SDS011;43755;49.736;8.734;2023-11-19T11:01:26;3.92;;;1.90;;
11447;SDS011;43755;49.736;8.734;2023-11-19T11:03:35;4.65;;;2.35;;
11447;SDS011;43755;49.736;8.734;2023-11-19T11:05:40;3.45;;;2.22;;
11447;SDS011;43755;49.736;8.734;2023-11-19T11:07:42;4.57;;;2.17;;
11447;SDS011;43755;49.736;8.734;2023-11-19T11:09:46;4.78;;;2.30;;
11447;SDS011;43755;49.736;8.734;2023-11-19T11:11:48;3.25;;;2.30;;
11447;SDS011;43755;49.736;8.734;2023-11-19T11:13:51;2.63;;;2.00;;
11447;SDS011;43755;49.736;8.734;2023-11-19T11:15:54;4.10;;;2.17;;
11447;SDS011;43755;49.736;8.734;2023-11-19T11:17:59;3.47;;;2.00;;
11447;SDS011;43755;49.736;8.734;2023-11-19T11:20:01;3.00;;;2.05;;
11447;SDS011;43755;49.736;8.734;2023-11-19T11:22:03;10.23;;;2.20;;
11447;SDS011;43755;49.736;8.734;2023-11-19T11:26:57;6.38;;;2.22;;
11447;SDS011;43755;49.736;8.734;2023-11-19T11:29:09;3.38;;;1.83;;
11447;SDS011;43755;49.736;8.734;2023-11-19T11:31:20;5.57;;;2.15;;
11447;SDS011;43755;49.736;8.734;2023-11-19T11:33:34;5.43;;;1.90;;
11447;SDS011;43755;49.736;8.734;2023-11-19T11:35:49;4.20;;;1.80;;
11447;SDS011;43755;49.736;8.734;2023-11-19T11:37:59;4.18;;;2.08;;
11447;SDS011;43755;49.736;8.734;2023-11-19T11:40:03;4.45;;;1.77;;
11447;SDS011;43755;49.736;8.734;2023-11-19T11:42:31;5.60;;;1.80;;
11447;SDS011;43755;49.736;8.734;2023-11-19T11:46:59;3.67;;;1.45;;
11447;SDS011;43755;49.736;8.734;2023-11-19T11:49:01;4.22;;;1.77;;
11447;SDS011;43755;49.736;8.734;2023-11-19T11:51:03;5.15;;;1.92;;
11447;SDS011;43755;49.736;8.734;2023-11-19T11:53:15;4.22;;;1.90;;
11447;SDS011;43755;49.736;8.734;2023-11-19T11:55:16;3.88;;;1.90;;
11447;SDS011;43755;49.736;8.734;2023-11-19T11:57:18;4.55;;;1.65;;
11447;SDS011;43755;49.736;8.734;2023-11-19T11:59:22;8.77;;;1.80;;
11447;SDS011;43755;49.736;8.734;2023-11-19T12:01:25;3.75;;;1.60;;
11447;SDS011;43755;49.736;8.734;2023-11-19T12:03:28;3.60;;;1.92;;
11447;SDS011;43755;49.736;8.734;2023-11-19T12:05:30;4.97;;;1.90;;
11447;SDS011;43755;49.736;8.734;2023-11-19T12:07:32;4.35;;;2.00;;
11447;SDS011;43755;49.736;8.734;2023-11-19T12:09:34;3.80;;;1.75;;
11447;SDS011;43755;49.736;8.734;2023-11-19T12:11:35;4.40;;;1.67;;
11447;SDS011;43755;49.736;8.734;2023-11-19T12:13:47;3.75;;;1.75;;
11447;SDS011;43755;49.736;8.734;2023-11-19T12:16:09;4.80;;;1.65;;
11447;SDS011;43755;49.736;8.734;2023-11-19T12:18:11;4.30;;;1.52;;
11447;SDS011;43755;49.736;8.734;2023-11-19T12:20:20;4.13;;;1.60;;
11447;SDS011;43755;49.736;8.734;2023-11-19T12:22:23;4.85;;;1.70;;
11447;SDS011;43755;49.736;8.734;2023-11-19T12:24:25;3.83;;;1.50;;